LJPZ

Portoroz Airport

Portoroz, Slovenia
TAF LJPZ 201700Z 2018/2103 02005KT CAVOK BECMG 2018/2019 12005KT
Issued Valid From Valid To
Apr-20 @ 17:00 UTC
(2 hours ago)
Apr-20 @ 18:00 UTC
(37 minutes ago)
Apr-21 @ 03:00 UTC
(in 8 hours)
Apr-20 @ 18:00 to Apr-21 @ 03:00
TAF LJPZ 201700Z 2018/2103 02005KT CAVOK
Wind Visibility Clouds Conditions
20° at 5 knots 10,000+ meters
  • No significant clouds
Becoming Apr-20 @ 18:00 to Apr-21 @ 03:00
BECMG 2018/2019 12005KT
Wind Visibility Clouds Conditions
120° at 5 knots 10,000+ meters
  • No significant clouds
TAF LJPZ 201700Z 2018/2103 02005KT CAVOK BECMG 2018/2019 12005KT
Issued Apr-20 @ 17:00 UTC
(2 hours ago)
Valid From Apr-20 @ 18:00 UTC
(37 minutes ago)
Valid To Apr-21 @ 03:00 UTC
(in 8 hours)
Apr-20 @ 18:00 - Apr-21 @ 03:00
Wind Visibility
20° at 5 knots 10,000+ meters
Clouds
  • No significant clouds
Conditions
Becoming Apr-20 @ 18:00 - Apr-21 @ 03:00
Wind Visibility
120° at 5 knots 10,000+ meters
Clouds
  • No significant clouds
Conditions